createdAt,value
2023-09-07T00:00:41.057Z,3.20
2023-09-07T00:03:10.005Z,3.30
2023-09-07T00:05:40.107Z,3.20
2023-09-07T00:08:08.711Z,3.47
2023-09-07T00:10:37.295Z,3.07
2023-09-07T00:13:06.537Z,3.17
2023-09-07T00:15:38.872Z,3.17
2023-09-07T00:18:07.749Z,3.37
2023-09-07T00:20:36.462Z,3.00
2023-09-07T00:23:07.417Z,4.03
2023-09-07T00:25:36.105Z,3.60
2023-09-07T00:28:04.810Z,3.50
2023-09-07T00:30:33.395Z,3.33
2023-09-07T00:33:01.967Z,3.67
2023-09-07T00:35:31.638Z,3.07
2023-09-07T00:38:00.229Z,3.00
2023-09-07T00:40:30.355Z,3.20
2023-09-07T00:42:59.009Z,3.50
2023-09-07T00:45:27.727Z,2.30
2023-09-07T00:47:56.421Z,3.47
2023-09-07T00:50:25.058Z,2.80
2023-09-07T00:52:54.363Z,3.27
2023-09-07T00:55:23.623Z,3.17
2023-09-07T00:57:53.585Z,3.23
2023-09-07T01:00:22.260Z,3.23
2023-09-07T01:02:51.380Z,3.97
2023-09-07T01:05:21.964Z,3.20
2023-09-07T01:07:51.821Z,2.93
2023-09-07T01:10:22.839Z,3.13
2023-09-07T01:12:51.396Z,3.63
2023-09-07T01:15:21.360Z,2.97
2023-09-07T01:17:50.290Z,3.30
2023-09-07T01:20:19.388Z,2.90
2023-09-07T01:22:49.842Z,2.70
2023-09-07T01:25:18.700Z,3.20
2023-09-07T01:27:48.163Z,3.37
2023-09-07T01:30:17.705Z,3.57
2023-09-07T01:32:46.487Z,2.57
2023-09-07T01:35:17.889Z,2.90
2023-09-07T01:37:46.631Z,3.27
2023-09-07T01:40:16.645Z,3.07
2023-09-07T01:42:45.222Z,3.30
2023-09-07T01:45:13.814Z,3.07
2023-09-07T01:47:42.645Z,3.23
2023-09-07T01:50:12.262Z,3.27
2023-09-07T01:52:40.867Z,3.77
2023-09-07T01:55:09.780Z,3.10
2023-09-07T01:57:39.662Z,2.87
2023-09-07T02:00:09.204Z,3.10
2023-09-07T02:02:37.808Z,3.33
2023-09-07T02:05:06.804Z,3.30
2023-09-07T02:07:35.480Z,3.20
2023-09-07T02:10:05.216Z,3.13
2023-09-07T02:12:33.813Z,4.27
2023-09-07T02:15:04.835Z,3.30
2023-09-07T02:17:33.678Z,3.10
2023-09-07T02:20:02.375Z,2.70
2023-09-07T02:22:30.964Z,3.20
2023-09-07T02:24:59.641Z,3.37
2023-09-07T02:27:28.413Z,3.53
2023-09-07T02:29:57.021Z,3.53
2023-09-07T02:32:27.035Z,3.07
2023-09-07T02:34:55.604Z,3.60
2023-09-07T02:37:24.337Z,3.17
2023-09-07T02:39:52.904Z,3.37
2023-09-07T02:42:21.565Z,3.20
2023-09-07T02:44:50.125Z,3.07
2023-09-07T02:47:18.690Z,3.50
2023-09-07T02:49:49.547Z,3.60
2023-09-07T02:52:18.287Z,3.00
2023-09-07T02:54:46.887Z,2.97
2023-09-07T02:57:15.467Z,3.07
2023-09-07T02:59:44.051Z,2.93
2023-09-07T03:02:13.297Z,3.33
2023-09-07T03:04:42.057Z,3.23
2023-09-07T03:07:12.020Z,3.43
2023-09-07T03:09:40.648Z,3.43
2023-09-07T03:12:09.604Z,3.43
2023-09-07T03:14:38.174Z,3.50
2023-09-07T03:17:07.986Z,3.70
2023-09-07T03:19:36.609Z,4.40
2023-09-07T03:22:05.612Z,3.30
2023-09-07T03:24:35.620Z,3.87
2023-09-07T03:27:04.177Z,3.77
2023-09-07T03:29:34.339Z,3.67
2023-09-07T03:32:03.315Z,4.00
2023-09-07T03:34:32.005Z,3.87
2023-09-07T03:37:00.644Z,4.20
2023-09-07T03:39:29.537Z,3.43
2023-09-07T03:41:59.494Z,3.73
2023-09-07T03:44:28.060Z,3.90
2023-09-07T03:46:56.686Z,3.53
2023-09-07T03:49:25.505Z,3.50
2023-09-07T03:51:54.205Z,3.50
2023-09-07T03:54:22.829Z,4.20
2023-09-07T03:56:51.377Z,4.77
2023-09-07T03:59:21.295Z,4.30
2023-09-07T04:01:50.138Z,3.90
2023-09-07T04:04:19.123Z,4.83
2023-09-07T04:06:49.539Z,3.73
2023-09-07T04:09:18.649Z,3.60
2023-09-07T04:11:47.247Z,4.10
2023-09-07T04:14:15.853Z,4.30
2023-09-07T04:16:46.213Z,4.10
2023-09-07T04:19:14.824Z,3.87
2023-09-07T04:21:43.479Z,3.50
2023-09-07T04:24:12.058Z,3.73
2023-09-07T04:26:40.659Z,3.60
2023-09-07T04:29:09.663Z,3.43
2023-09-07T04:31:38.294Z,3.40
2023-09-07T04:34:08.311Z,3.67
2023-09-07T04:36:37.002Z,3.83
2023-09-07T04:39:05.730Z,3.97
2023-09-07T04:41:34.484Z,3.90
2023-09-07T04:44:03.093Z,3.63
2023-09-07T04:46:31.743Z,3.30
2023-09-07T04:49:00.354Z,3.97
2023-09-07T04:51:30.853Z,3.50
2023-09-07T04:53:59.577Z,4.07
2023-09-07T04:56:30.046Z,4.03
2023-09-07T04:58:58.797Z,5.80
2023-09-07T05:01:27.392Z,3.97
2023-09-07T05:03:56.502Z,4.60
2023-09-07T05:06:25.220Z,3.50
2023-09-07T05:08:55.138Z,3.37
2023-09-07T05:11:23.742Z,3.30
2023-09-07T05:13:52.291Z,3.60
2023-09-07T05:16:20.954Z,3.67
2023-09-07T05:18:49.701Z,3.30
2023-09-07T05:21:18.662Z,4.00
2023-09-07T05:23:47.268Z,4.37
2023-09-07T05:26:17.189Z,3.33
2023-09-07T05:28:45.745Z,4.20
2023-09-07T05:31:14.508Z,3.73
2023-09-07T05:33:43.245Z,4.13
2023-09-07T05:36:11.861Z,5.57
2023-09-07T05:38:40.698Z,4.17
2023-09-07T05:41:09.813Z,3.20
2023-09-07T05:43:39.763Z,4.27
2023-09-07T05:46:08.637Z,6.13
2023-09-07T05:48:37.289Z,8.27
2023-09-07T05:51:06.089Z,7.83
2023-09-07T05:53:34.658Z,9.97
2023-09-07T05:56:03.225Z,11.17
2023-09-07T05:58:32.025Z,9.43
2023-09-07T06:01:02.293Z,11.77
2023-09-07T06:03:31.057Z,10.43
2023-09-07T06:05:59.763Z,12.53
2023-09-07T06:08:29.432Z,10.57
2023-09-07T06:10:58.288Z,11.03
2023-09-07T06:13:26.849Z,11.43
2023-09-07T06:15:55.441Z,11.67
2023-09-07T06:18:25.410Z,10.53
2023-09-07T06:20:54.027Z,8.80
2023-09-07T06:23:22.777Z,9.63
2023-09-07T06:25:51.355Z,12.97
2023-09-07T06:28:20.005Z,9.17
2023-09-07T06:30:48.655Z,9.03
2023-09-07T06:33:18.229Z,10.70
2023-09-07T06:35:48.180Z,8.47
2023-09-07T06:38:16.801Z,8.47
2023-09-07T06:40:50.288Z,8.77
2023-09-07T06:43:18.894Z,8.60
2023-09-07T06:45:47.702Z,8.17
2023-09-07T06:48:16.303Z,7.17
2023-09-07T06:50:44.989Z,7.63
2023-09-07T06:53:14.990Z,6.63
2023-09-07T06:55:43.567Z,6.47
2023-09-07T06:58:12.127Z,5.97
2023-09-07T07:00:40.756Z,5.73
2023-09-07T07:03:19.713Z,6.52
2023-09-07T07:05:48.339Z,4.77
2023-09-07T07:08:18.249Z,3.87
2023-09-07T07:10:46.893Z,4.17
2023-09-07T07:13:15.611Z,4.23
2023-09-07T07:21:31.652Z,2.77
2023-09-07T07:24:01.579Z,3.33
2023-09-07T07:26:30.900Z,2.53
2023-09-07T07:28:59.486Z,2.33
2023-09-07T07:31:28.251Z,2.43
2023-09-07T07:33:56.820Z,3.13
2023-09-07T07:36:25.432Z,2.97
2023-09-07T07:38:54.103Z,2.67
2023-09-07T07:41:24.344Z,2.93
2023-09-07T07:43:52.973Z,2.63
2023-09-07T07:46:21.626Z,2.30
2023-09-07T07:48:50.346Z,3.63
2023-09-07T07:51:19.184Z,2.93
2023-09-07T07:53:47.880Z,2.73
2023-09-07T07:56:19.730Z,2.67
2023-09-07T07:58:49.713Z,2.47
2023-09-07T08:01:18.388Z,2.57
2023-09-07T08:03:47.294Z,2.40
2023-09-07T08:06:15.983Z,2.70
2023-09-07T08:08:44.607Z,2.73
2023-09-07T08:11:13.272Z,2.57
2023-09-07T08:13:42.047Z,3.07
2023-09-07T08:16:14.553Z,2.40
2023-09-07T08:18:43.500Z,2.73
2023-09-07T08:21:13.232Z,2.97
2023-09-07T08:23:41.862Z,2.45
2023-09-07T08:26:10.891Z,2.77
2023-09-07T08:28:39.588Z,3.10
2023-09-07T08:31:08.331Z,2.67
2023-09-07T08:33:41.625Z,3.30
2023-09-07T08:36:10.656Z,3.80
2023-09-07T08:38:39.233Z,3.40
2023-09-07T08:41:09.277Z,3.13
2023-09-07T08:43:42.627Z,2.88
2023-09-07T08:46:16.274Z,2.75
2023-09-07T08:48:47.749Z,2.60
2023-09-07T08:51:17.793Z,2.95
2023-09-07T08:53:47.487Z,2.60
2023-09-07T08:56:16.817Z,2.33
2023-09-07T08:58:46.611Z,4.07
2023-09-07T09:01:15.330Z,2.85
2023-09-07T09:03:44.842Z,2.83
2023-09-07T09:06:14.883Z,2.30
2023-09-07T09:08:46.953Z,2.60
2023-09-07T09:11:15.674Z,2.90
2023-09-07T09:13:44.364Z,3.05
2023-09-07T09:16:14.026Z,2.67
2023-09-07T09:18:50.889Z,2.45
2023-09-07T09:21:21.489Z,2.38
2023-09-07T09:23:51.338Z,3.58
2023-09-07T09:26:20.632Z,2.22
2023-09-07T09:28:51.782Z,3.38
2023-09-07T09:31:20.560Z,2.72
2023-09-07T09:33:52.392Z,3.08
2023-09-07T09:36:22.848Z,2.45
2023-09-07T09:38:53.982Z,3.20
2023-09-07T09:41:22.927Z,2.50
2023-09-07T09:43:52.304Z,2.22
2023-09-07T09:46:21.240Z,4.03
2023-09-07T09:48:50.154Z,3.35
2023-09-07T09:51:19.941Z,2.45
2023-09-07T09:53:50.236Z,2.67
2023-09-07T09:56:21.513Z,2.40
2023-09-07T09:58:50.211Z,2.42
2023-09-07T10:01:19.454Z,2.17
2023-09-07T10:03:49.118Z,2.30
2023-09-07T10:06:21.646Z,1.92
2023-09-07T10:08:58.333Z,2.25
2023-09-07T10:11:30.265Z,1.95
2023-09-07T10:14:04.246Z,1.92
2023-09-07T10:16:43.458Z,1.90
2023-09-07T10:19:18.677Z,2.38
2023-09-07T10:21:47.481Z,1.88
2023-09-07T10:24:27.695Z,2.38
2023-09-07T10:26:59.953Z,2.35
2023-09-07T10:29:28.902Z,2.10
2023-09-07T10:31:57.764Z,2.15
2023-09-07T10:34:38.736Z,2.28
2023-09-07T10:37:08.625Z,2.15
2023-09-07T10:39:39.852Z,2.25
2023-09-07T10:42:08.650Z,1.88
2023-09-07T10:44:37.299Z,2.13
2023-09-07T10:47:06.677Z,2.28
2023-09-07T10:49:35.326Z,2.53
2023-09-07T10:52:06.190Z,1.98
2023-09-07T10:54:34.822Z,2.20
2023-09-07T10:57:12.011Z,1.98
2023-09-07T10:59:40.742Z,2.00
2023-09-07T11:02:09.753Z,2.20
2023-09-07T11:04:38.436Z,2.28
2023-09-07T11:07:07.430Z,2.17
2023-09-07T11:09:36.065Z,2.38
2023-09-07T11:12:08.776Z,2.10
2023-09-07T11:14:41.409Z,2.55
2023-09-07T11:17:10.117Z,2.40
2023-09-07T11:19:38.766Z,2.05
2023-09-07T11:22:07.456Z,2.17
2023-09-07T11:24:37.721Z,2.30
2023-09-07T11:27:06.484Z,2.45
2023-09-07T11:29:35.318Z,2.55
2023-09-07T11:32:15.202Z,2.65
2023-09-07T11:34:50.703Z,2.53
2023-09-07T11:37:19.631Z,2.40
2023-09-07T11:39:49.450Z,2.10
2023-09-07T11:42:18.153Z,2.10
2023-09-07T11:44:46.872Z,2.47
2023-09-07T11:47:17.264Z,2.30
2023-09-07T11:49:47.001Z,2.42
2023-09-07T11:52:15.629Z,2.55
2023-09-07T11:54:44.692Z,2.70
2023-09-07T11:57:13.306Z,2.95
2023-09-07T11:59:57.866Z,2.30
2023-09-07T12:02:29.361Z,2.83
2023-09-07T12:04:58.181Z,2.50
2023-09-07T12:07:27.486Z,2.50
2023-09-07T12:09:58.441Z,2.05
2023-09-07T12:12:27.019Z,2.22
2023-09-07T12:14:57.153Z,2.72
2023-09-07T12:17:26.109Z,2.30
2023-09-07T12:19:56.188Z,2.38
2023-09-07T12:22:24.817Z,2.08
2023-09-07T12:25:05.961Z,2.60
2023-09-07T12:27:53.203Z,2.28
2023-09-07T12:30:24.916Z,2.30
2023-09-07T12:32:53.975Z,2.20
2023-09-07T12:35:24.602Z,2.72
2023-09-07T12:37:53.323Z,2.65
2023-09-07T12:40:21.945Z,2.35
2023-09-07T12:42:50.625Z,2.22
2023-09-07T12:45:19.303Z,2.13
2023-09-07T12:47:47.942Z,1.85
2023-09-07T12:50:16.588Z,2.38
2023-09-07T12:52:46.582Z,2.65
2023-09-07T12:55:15.342Z,2.22
2023-09-07T12:57:44.805Z,2.53
2023-09-07T13:00:14.051Z,2.58
2023-09-07T13:02:43.316Z,2.30
2023-09-07T13:05:12.956Z,2.20
2023-09-07T13:07:41.962Z,2.20
2023-09-07T13:10:12.355Z,3.95
2023-09-07T13:12:40.949Z,2.50
2023-09-07T13:15:10.129Z,2.20
2023-09-07T13:17:39.046Z,2.50
2023-09-07T13:20:08.413Z,2.30
2023-09-07T13:22:37.056Z,2.40
2023-09-07T13:25:06.151Z,2.50
2023-09-07T13:27:36.164Z,2.50
2023-09-07T13:30:04.900Z,2.42
2023-09-07T13:32:34.097Z,2.80
2023-09-07T13:35:02.886Z,2.65
2023-09-07T13:37:31.427Z,2.33
2023-09-07T13:40:00.004Z,2.58
2023-09-07T13:42:29.111Z,4.30
2023-09-07T13:44:59.116Z,2.75
2023-09-07T13:47:27.832Z,2.70
2023-09-07T13:49:57.420Z,2.63
2023-09-07T13:52:26.931Z,2.55
2023-09-07T13:54:55.531Z,3.03
2023-09-07T13:57:24.353Z,2.50
2023-09-07T13:59:53.631Z,3.95
2023-09-07T14:02:24.216Z,2.30
2023-09-07T14:04:52.875Z,3.38
2023-09-07T14:07:22.395Z,2.40
2023-09-07T14:09:51.158Z,2.20
2023-09-07T14:12:19.824Z,2.47
2023-09-07T14:14:48.420Z,2.42
2023-09-07T14:17:16.991Z,2.92
2023-09-07T14:19:47.478Z,2.65
2023-09-07T14:22:16.031Z,3.10
2023-09-07T14:24:44.598Z,2.33
2023-09-07T14:27:13.266Z,2.55
2023-09-07T14:29:41.824Z,2.30
2023-09-07T14:32:10.394Z,2.30
2023-09-07T14:34:39.172Z,2.60
2023-09-07T14:37:09.447Z,2.50
2023-09-07T14:39:38.113Z,2.80
2023-09-07T14:42:12.481Z,2.50
2023-09-07T14:44:41.081Z,2.22
2023-09-07T14:47:11.231Z,2.38
2023-09-07T14:49:39.990Z,2.70
2023-09-07T14:52:10.082Z,2.70
2023-09-07T14:54:38.763Z,2.38
2023-09-07T14:57:07.462Z,2.47
2023-09-07T14:59:36.162Z,2.38
2023-09-07T15:02:05.406Z,2.33
2023-09-07T15:04:34.326Z,2.85
2023-09-07T15:07:03.645Z,2.40
2023-09-07T15:09:33.835Z,2.70
2023-09-07T15:12:02.602Z,3.30
2023-09-07T15:14:31.296Z,2.88
2023-09-07T15:16:59.977Z,2.60
2023-09-07T15:19:28.543Z,3.70
2023-09-07T15:21:57.142Z,2.50
2023-09-07T15:24:25.733Z,2.70
2023-09-07T15:26:55.663Z,2.55
2023-09-07T15:29:24.481Z,2.88
2023-09-07T15:31:54.359Z,2.60
2023-09-07T15:34:22.979Z,3.42
2023-09-07T15:36:51.522Z,2.50
2023-09-07T15:39:20.198Z,2.72
2023-09-07T15:41:48.852Z,3.03
2023-09-07T15:44:18.769Z,2.60
2023-09-07T15:46:47.425Z,3.10
2023-09-07T15:49:16.033Z,2.80
2023-09-07T15:51:44.602Z,2.50
2023-09-07T15:54:13.173Z,2.72
2023-09-07T15:56:42.777Z,3.08
2023-09-07T15:59:12.136Z,3.03
2023-09-07T16:01:42.243Z,2.35
2023-09-07T16:04:10.923Z,2.75
2023-09-07T16:06:39.542Z,3.05
2023-09-07T16:09:08.132Z,2.90
2023-09-07T16:11:36.708Z,2.47
2023-09-07T16:14:05.375Z,3.65
2023-09-07T16:16:34.954Z,2.75
2023-09-07T16:19:05.084Z,3.13
2023-09-07T16:21:33.816Z,2.50
2023-09-07T16:24:02.481Z,3.00
2023-09-07T16:26:31.098Z,3.38
2023-09-07T16:28:59.700Z,2.60
2023-09-07T16:31:28.707Z,2.75
2023-09-07T16:33:57.372Z,3.38
2023-09-07T16:36:27.312Z,2.47
2023-09-07T16:38:56.397Z,2.90
2023-09-07T16:41:25.052Z,3.28
2023-09-07T16:43:53.645Z,2.90
2023-09-07T16:46:22.457Z,2.65
2023-09-07T16:48:51.170Z,3.28
2023-09-07T16:51:19.829Z,2.95
2023-09-07T16:53:49.865Z,3.25
2023-09-07T16:56:21.831Z,2.53
2023-09-07T16:59:18.987Z,2.50
2023-09-07T17:01:39.452Z,2.53
2023-09-07T17:04:08.579Z,3.05
2023-09-07T17:06:37.212Z,2.63
2023-09-07T17:09:07.289Z,2.97
2023-09-07T17:11:36.385Z,2.90
2023-09-07T17:14:05.046Z,2.63
2023-09-07T17:16:33.863Z,3.17
2023-09-07T17:19:03.565Z,2.45
2023-09-07T17:21:32.155Z,2.72
2023-09-07T17:24:00.855Z,3.72
2023-09-07T17:26:30.836Z,2.78
2023-09-07T17:28:59.414Z,4.35
2023-09-07T17:31:28.016Z,3.20
2023-09-07T17:33:56.627Z,3.65
2023-09-07T17:36:26.448Z,3.38
2023-09-07T17:38:56.699Z,3.10
2023-09-07T17:41:27.335Z,2.90
2023-09-07T17:43:57.557Z,2.90
2023-09-07T17:46:26.618Z,3.08
2023-09-07T17:48:55.557Z,4.20
2023-09-07T17:51:24.232Z,2.67
2023-09-07T17:53:52.860Z,2.95
2023-09-07T17:56:21.481Z,3.00
2023-09-07T17:58:50.138Z,2.95
2023-09-07T18:01:20.637Z,2.80
2023-09-07T18:03:49.391Z,2.95
2023-09-07T18:06:18.117Z,3.10
2023-09-07T18:08:46.748Z,2.60
2023-09-07T18:11:15.345Z,2.83
2023-09-07T18:13:43.914Z,3.47
2023-09-07T18:16:12.493Z,2.78
2023-09-07T18:18:42.498Z,2.97
2023-09-07T18:21:11.416Z,2.88
2023-09-07T18:23:40.024Z,3.03
2023-09-07T18:26:15.837Z,3.28
2023-09-07T18:28:45.563Z,3.05
2023-09-07T18:31:14.241Z,3.47
2023-09-07T18:33:44.348Z,3.67
2023-09-07T18:36:13.178Z,3.25
2023-09-07T18:38:41.742Z,3.08
2023-09-07T18:41:11.300Z,2.90
2023-09-07T18:43:40.555Z,3.22
2023-09-07T18:46:09.673Z,3.33
2023-09-07T18:48:38.296Z,3.05
2023-09-07T18:51:09.349Z,3.20
2023-09-07T18:53:38.624Z,2.75
2023-09-07T18:56:08.026Z,3.37
2023-09-07T18:58:36.960Z,3.80
2023-09-07T19:01:14.454Z,5.17
2023-09-07T19:03:47.871Z,5.22
2023-09-07T19:06:17.912Z,5.50
2023-09-07T19:08:46.812Z,5.40
2023-09-07T19:11:16.994Z,5.20
2023-09-07T19:13:45.889Z,5.50
2023-09-07T19:16:16.047Z,4.80
2023-09-07T19:18:44.788Z,4.43
2023-09-07T19:21:24.203Z,3.77
2023-09-07T19:23:54.826Z,5.53
2023-09-07T19:26:30.613Z,4.17
2023-09-07T19:28:59.543Z,4.00
2023-09-07T19:31:28.343Z,3.73
2023-09-07T19:33:57.704Z,4.67
2023-09-07T19:36:26.915Z,3.43
2023-09-07T19:38:58.470Z,3.83
2023-09-07T19:41:28.148Z,3.67
2023-09-07T19:43:56.716Z,3.20
2023-09-07T19:46:25.560Z,3.67
2023-09-07T19:48:54.442Z,4.13
2023-09-07T19:51:23.971Z,3.03
2023-09-07T19:53:52.623Z,3.33
2023-09-07T19:56:24.749Z,3.63
2023-09-07T19:58:54.289Z,3.53
2023-09-07T20:01:23.813Z,3.57
2023-09-07T20:03:53.569Z,4.10
2023-09-07T20:06:23.443Z,3.70
2023-09-07T20:08:52.075Z,3.73
2023-09-07T20:11:20.686Z,4.30
2023-09-07T20:13:50.580Z,3.27
2023-09-07T20:16:19.350Z,3.97
2023-09-07T20:18:48.116Z,3.70
2023-09-07T20:21:16.887Z,3.43
2023-09-07T20:23:45.613Z,3.33
2023-09-07T20:26:14.179Z,3.30
2023-09-07T20:28:43.890Z,3.40
2023-09-07T20:31:13.976Z,3.93
2023-09-07T20:33:42.777Z,3.23
2023-09-07T20:36:11.498Z,3.20
2023-09-07T20:38:40.251Z,2.63
2023-09-07T20:41:09.071Z,3.47
2023-09-07T20:43:38.111Z,3.10
2023-09-07T20:46:07.674Z,4.07
2023-09-07T20:48:37.833Z,3.40
2023-09-07T20:51:06.549Z,3.10
2023-09-07T20:53:35.202Z,3.27
2023-09-07T20:56:03.783Z,4.63
2023-09-07T20:58:33.081Z,3.40
2023-09-07T21:01:03.560Z,3.40
2023-09-07T21:03:32.662Z,3.50
2023-09-07T21:06:02.931Z,3.70
2023-09-07T21:08:31.733Z,3.53
2023-09-07T21:11:00.435Z,3.87
2023-09-07T21:13:29.030Z,3.23
2023-09-07T21:15:57.644Z,4.93
2023-09-07T21:18:26.460Z,3.87
2023-09-07T21:20:55.243Z,3.63
2023-09-07T21:23:25.449Z,3.20
2023-09-07T21:25:54.197Z,3.50
2023-09-07T21:28:22.853Z,3.73
2023-09-07T21:30:51.560Z,3.47
2023-09-07T21:33:20.284Z,3.60
2023-09-07T21:35:49.007Z,3.60
2023-09-07T21:38:17.666Z,3.60
2023-09-07T21:40:47.750Z,3.83
2023-09-07T21:43:16.518Z,3.80
2023-09-07T21:45:45.288Z,4.03
2023-09-07T21:48:14.160Z,3.60
2023-09-07T21:50:42.986Z,3.97
2023-09-07T21:53:12.301Z,4.13
2023-09-07T21:55:41.027Z,3.50
2023-09-07T21:58:11.050Z,4.10
2023-09-07T22:00:39.730Z,5.60
2023-09-07T22:03:08.470Z,4.43
2023-09-07T22:05:37.277Z,4.53
2023-09-07T22:08:06.239Z,4.17
2023-09-07T22:10:34.869Z,3.63
2023-09-07T22:13:03.759Z,4.20
2023-09-07T22:15:33.920Z,3.77
2023-09-07T22:18:02.625Z,3.80
2023-09-07T22:20:32.596Z,4.30
2023-09-07T22:23:02.740Z,3.83
2023-09-07T22:25:31.406Z,3.90
2023-09-07T22:28:00.108Z,3.70
2023-09-07T22:30:28.815Z,4.27
2023-09-07T22:32:58.959Z,3.97
2023-09-07T22:35:27.693Z,4.00
2023-09-07T22:37:56.342Z,4.03
2023-09-07T22:40:24.974Z,3.40
2023-09-07T22:42:53.568Z,4.00
2023-09-07T22:45:22.645Z,3.90
2023-09-07T22:47:51.250Z,3.30
2023-09-07T22:50:22.025Z,4.37
2023-09-07T22:52:50.743Z,4.30
2023-09-07T22:55:39.396Z,3.87
2023-09-07T22:58:08.032Z,3.80
2023-09-07T23:00:36.650Z,3.90
2023-09-07T23:03:05.640Z,3.30
2023-09-07T23:05:36.189Z,3.27
2023-09-07T23:08:04.960Z,4.33
2023-09-07T23:10:33.619Z,3.63
2023-09-07T23:13:02.249Z,4.63
2023-09-07T23:15:31.961Z,3.90
2023-09-07T23:18:02.175Z,4.23
2023-09-07T23:20:30.890Z,3.83
2023-09-07T23:23:00.958Z,4.47
2023-09-07T23:25:29.721Z,3.60
2023-09-07T23:27:58.925Z,3.83
2023-09-07T23:30:28.033Z,3.83
2023-09-07T23:32:56.810Z,4.20
2023-09-07T23:35:25.773Z,4.03
2023-09-07T23:37:54.476Z,3.50
2023-09-07T23:40:24.658Z,3.90
2023-09-07T23:42:53.383Z,3.87
2023-09-07T23:45:22.161Z,3.80
2023-09-07T23:47:51.155Z,3.77
2023-09-07T23:50:19.889Z,3.30
2023-09-07T23:52:48.481Z,3.57
2023-09-07T23:55:17.061Z,3.33
2023-09-07T23:57:47.077Z,3.43
